Time;durP1;ratioP1;P1;durP2;ratioP2;P2;SDS_P1;SDS_P2;PMS_P1;PMS_P2;Temp;Humidity;BMP_temperature;BMP_pressure;BME280_temperature;BME280_humidity;BME280_pressure;Samples;Min_cycle;Max_cycle;Signal;HPM_P1;HPM_P2
2023/07/08 00:00:53;;;;;;;19.50;13.13;;;;;;;;;;5073832;28;20051;-69
2023/07/08 00:03:20;;;;;;;28.13;13.55;;;;;;;;;;5073701;28;20043;-69
2023/07/08 00:06:05;;;;;;;25.88;14.35;;;;;;;;;;5073663;28;20020;-69
2023/07/08 00:08:51;;;;;;;34.50;25.27;;;;;;;;;;5072938;28;20040;-68
2023/07/08 00:11:18;;;;;;;30.63;15.93;;;;;;;;;;5073744;28;20488;-68
2023/07/08 00:13:45;;;;;;;23.88;12.80;;;;;;;;;;5073418;28;20044;-70
2023/07/08 00:16:13;;;;;;;25.67;14.30;;;;;;;;;;5054152;28;20064;-69
2023/07/08 00:18:40;;;;;;;22.25;13.73;;;;;;;;;;5053522;28;20025;-70
2023/07/08 00:21:14;;;;;;;22.58;14.30;;;;;;;;;;5037388;28;20128;-69
2023/07/08 00:23:41;;;;;;;21.02;12.20;;;;;;;;;;5033393;28;20018;-70
2023/07/08 00:26:11;;;;;;;20.92;12.90;;;;;;;;;;5037522;28;20017;-69
2023/07/08 00:28:37;;;;;;;17.67;12.65;;;;;;;;;;5053184;28;20427;-69
2023/07/08 00:31:05;;;;;;;21.27;11.90;;;;;;;;;;5053255;28;20108;-69
2023/07/08 00:33:32;;;;;;;31.55;13.90;;;;;;;;;;5053388;28;20021;-69
2023/07/08 00:35:58;;;;;;;129.40;83.25;;;;;;;;;;5053246;28;20025;-69
2023/07/08 00:38:28;;;;;;;46.97;29.70;;;;;;;;;;5053126;28;20122;-70
2023/07/08 00:41:04;;;;;;;34.95;21.27;;;;;;;;;;5053258;28;20359;-68
2023/07/08 00:43:35;;;;;;;102.03;38.55;;;;;;;;;;5053141;28;20017;-68
2023/07/08 00:46:05;;;;;;;128.30;26.27;;;;;;;;;;5053223;28;20048;-69
2023/07/08 00:48:35;;;;;;;107.85;68.85;;;;;;;;;;5053163;28;20025;-76
2023/07/08 00:51:02;;;;;;;34.60;23.20;;;;;;;;;;5053007;28;20466;-73
2023/07/08 00:53:30;;;;;;;32.00;17.30;;;;;;;;;;5053467;28;20056;-75
2023/07/08 00:56:00;;;;;;;42.47;24.20;;;;;;;;;;5052917;28;20098;-71
2023/07/08 00:58:32;;;;;;;35.00;23.13;;;;;;;;;;5053210;28;20025;-71
2023/07/08 01:00:59;;;;;;;31.80;20.00;;;;;;;;;;5053346;28;20021;-71
2023/07/08 01:03:27;;;;;;;40.20;23.48;;;;;;;;;;5053010;28;20028;-73
2023/07/08 01:05:56;;;;;;;45.78;28.55;;;;;;;;;;5053041;28;20167;-73
2023/07/08 01:08:28;;;;;;;103.80;92.18;;;;;;;;;;5052945;28;20036;-71
2023/07/08 01:10:58;;;;;;;222.25;170.13;;;;;;;;;;5052819;28;20036;-72
2023/07/08 01:13:25;;;;;;;143.65;99.35;;;;;;;;;;5052882;28;20045;-71
2023/07/08 01:15:52;;;;;;;37.25;27.45;;;;;;;;;;5053070;28;20540;-72
2023/07/08 01:18:21;;;;;;;20.00;12.93;;;;;;;;;;5052847;28;20025;-70
2023/07/08 01:20:48;;;;;;;23.10;12.48;;;;;;;;;;5052697;28;20053;-71
2023/07/08 01:23:15;;;;;;;21.42;13.60;;;;;;;;;;5052761;28;20020;-71
2023/07/08 01:25:43;;;;;;;129.32;100.07;;;;;;;;;;5052787;28;20100;-71
2023/07/08 01:28:10;;;;;;;181.65;122.38;;;;;;;;;;5052861;28;20465;-72
2023/07/08 01:30:37;;;;;;;110.50;65.90;;;;;;;;;;5052824;28;20033;-71
2023/07/08 01:33:06;;;;;;;45.03;27.58;;;;;;;;;;5053001;28;20550;-72
2023/07/08 01:35:33;;;;;;;28.33;17.35;;;;;;;;;;5052671;28;20440;-73
2023/07/08 01:38:02;;;;;;;19.40;13.88;;;;;;;;;;5053763;28;20107;-73
2023/07/08 01:40:34;;;;;;;50.50;34.03;;;;;;;;;;5057378;28;20025;-72
2023/07/08 01:43:01;;;;;;;80.80;56.33;;;;;;;;;;5057077;28;20458;-72
2023/07/08 01:45:30;;;;;;;58.70;41.55;;;;;;;;;;5056632;28;20025;-72
2023/07/08 01:48:16;;;;;;;28.20;18.58;;;;;;;;;;5056341;28;20029;-73
2023/07/08 01:50:46;;;;;;;29.75;20.30;;;;;;;;;;5054748;28;20474;-73
2023/07/08 01:53:16;;;;;;;53.58;30.33;;;;;;;;;;5056277;28;20047;-73
2023/07/08 01:55:42;;;;;;;35.58;26.73;;;;;;;;;;5056240;28;20025;-73
2023/07/08 01:58:09;;;;;;;33.15;21.80;;;;;;;;;;5056108;28;20013;-72
2023/07/08 02:00:35;;;;;;;34.45;20.60;;;;;;;;;;5056340;28;20103;-73
2023/07/08 02:03:02;;;;;;;28.95;21.73;;;;;;;;;;5056124;28;20021;-71
2023/07/08 02:05:29;;;;;;;26.58;17.60;;;;;;;;;;5055899;28;20071;-70
2023/07/08 02:07:56;;;;;;;32.85;21.58;;;;;;;;;;5056128;28;20052;-72
2023/07/08 02:10:25;;;;;;;97.80;71.70;;;;;;;;;;5055870;28;20033;-68
2023/07/08 02:12:54;;;;;;;74.22;54.67;;;;;;;;;;5048371;28;20053;-73
2023/07/08 02:15:21;;;;;;;52.53;36.90;;;29.60;99.90;;;;;;5046258;28;20102;-71
2023/07/08 02:17:48;;;;;;;35.58;24.05;;;29.80;99.90;;;;;;5046351;28;20068;-71
2023/07/08 02:20:15;;;;;;;32.75;24.65;;;29.70;99.90;;;;;;5046005;28;20056;-73
2023/07/08 02:22:42;;;;;;;31.45;21.60;;;29.60;99.90;;;;;;5037578;28;20366;-71
2023/07/08 02:25:09;;;;;;;32.53;22.27;;;29.70;99.90;;;;;;5037174;28;20029;-71
2023/07/08 02:27:36;;;;;;;39.22;25.17;;;29.80;99.90;;;;;;5041308;28;20056;-72
2023/07/08 02:30:07;;;;;;;33.10;20.77;;;29.90;99.90;;;;;;5047964;28;20094;-72
2023/07/08 02:32:35;;;;;;;34.03;21.95;;;30.00;99.90;;;;;;5040378;28;20431;-73
2023/07/08 02:35:03;;;;;;;35.95;22.33;;;30.00;99.90;;;;;;5035451;28;20529;-73
2023/07/08 02:37:30;;;;;;;39.10;27.55;;;30.10;99.90;;;;;;5044421;28;20398;-73
2023/07/08 02:39:56;;;;;;;49.78;34.67;;;30.10;99.90;;;;;;5055557;28;20017;-73
2023/07/08 02:42:23;;;;;;;113.88;79.13;;;30.20;99.90;;;;;;5055701;28;20028;-72
2023/07/08 02:44:50;;;;;;;60.05;40.65;;;30.20;99.90;;;;;;5055441;28;20032;-72
2023/07/08 02:47:16;;;;;;;74.25;50.13;;;30.30;99.90;;;;;;5048822;28;20054;-73
2023/07/08 02:49:43;;;;;;;30.83;21.52;;;30.30;99.90;;;;;;5039215;28;20040;-73
2023/07/08 02:52:09;;;;;;;53.25;37.42;;;30.30;99.90;;;;;;5035272;28;20549;-73
2023/07/08 02:54:36;;;;;;;92.82;63.42;;;30.40;99.90;;;;;;5040425;28;20020;-71
2023/07/08 02:57:03;;;;;;;29.77;22.25;;;30.40;99.90;;;;;;5037119;28;20028;-70
2023/07/08 02:59:29;;;;;;;56.20;38.50;;;30.50;99.90;;;;;;5046391;28;20104;-72
2023/07/08 03:01:56;;;;;;;47.47;32.75;;;30.60;99.90;;;;;;5044392;28;20023;-69
2023/07/08 03:04:25;;;;;;;62.63;44.33;;;30.60;99.90;;;;;;5050974;28;20105;-72
2023/07/08 03:06:51;;;;;;;47.65;33.38;;;30.60;99.90;;;;;;5054482;28;20028;-71
2023/07/08 03:09:18;;;;;;;44.00;31.83;;;30.70;99.90;;;;;;5054666;28;20028;-72
2023/07/08 03:11:45;;;;;;;27.05;20.10;;;30.70;99.90;;;;;;5054245;28;20059;-72
2023/07/08 03:14:11;;;;;;;43.15;30.67;;;30.70;99.90;;;;;;5051651;28;20032;-71
2023/07/08 03:16:38;;;;;;;45.70;33.30;;;30.80;99.90;;;;;;5051428;28;20025;-71
2023/07/08 03:19:05;;;;;;;29.50;21.67;;;30.80;99.90;;;;;;5054931;28;20009;-71
2023/07/08 03:21:32;;;;;;;34.15;24.65;;;30.90;99.90;;;;;;5052328;28;20031;-71
2023/07/08 03:23:58;;;;;;;33.70;24.52;;;30.90;99.90;;;;;;5051485;28;20039;-71
2023/07/08 03:26:26;;;;;;;44.47;33.83;;;30.90;99.90;;;;;;5054872;28;20359;-72
2023/07/08 03:28:53;;;;;;;29.40;21.58;;;31.00;99.90;;;;;;5054230;28;20021;-73
2023/07/08 03:31:20;;;;;;;29.15;22.50;;;31.00;99.90;;;;;;5052532;28;20057;-72
2023/07/08 03:33:46;;;;;;;36.80;25.08;;;31.00;99.90;;;;;;5051093;28;20191;-73
2023/07/08 03:36:26;;;;;;;27.20;21.20;;;30.90;99.90;;;;;;5053753;28;20462;-70
2023/07/08 03:38:57;;;;;;;31.48;21.33;;;30.90;99.90;;;;;;5053964;28;20532;-71
2023/07/08 03:41:24;;;;;;;26.88;20.25;;;31.10;99.90;;;;;;5050323;28;20036;-71
2023/07/08 03:43:51;;;;;;;24.67;19.83;;;31.10;99.90;;;;;;5053898;28;20020;-73
2023/07/08 03:46:19;;;;;;;25.17;19.42;;;31.20;99.90;;;;;;5048609;28;20017;-72
2023/07/08 03:48:46;;;;;;;26.50;20.00;;;31.10;99.90;;;;;;5054068;28;20051;-72
2023/07/08 03:51:22;;;;;;;35.47;22.02;;;31.20;99.90;;;;;;5049599;28;20294;-73
2023/07/08 03:53:49;;;;;;;50.35;33.78;;;31.30;99.90;;;;;;5051113;28;20078;-73
2023/07/08 03:56:16;;;;;;;26.05;20.73;;;31.40;99.90;;;;;;5050985;28;20048;-72
2023/07/08 03:58:42;;;;;;;30.52;21.55;;;31.50;99.90;;;;;;5051411;28;20398;-74
2023/07/08 04:01:20;;;;;;;27.95;20.45;;;31.60;99.90;;;;;;5049740;28;20022;-72
2023/07/08 04:03:47;;;;;;;22.38;18.33;;;31.60;99.90;;;;;;5049073;28;20142;-72
2023/07/08 04:06:15;;;;;;;28.30;20.00;;;31.60;99.90;;;;;;5053451;28;20029;-72
2023/07/08 04:08:42;;;;;;;26.13;18.52;;;31.60;99.90;;;;;;5050590;28;20025;-73
2023/07/08 04:11:12;;;;;;;29.25;20.58;;;31.60;99.90;;;;;;5053409;28;20096;-73
2023/07/08 04:13:39;;;;;;;32.70;21.00;;;31.60;99.90;;;;;;5050517;28;20168;-73
2023/07/08 04:16:06;;;;;;;28.13;19.13;;;31.60;99.90;;;;;;5053017;28;20103;-73
2023/07/08 04:18:33;;;;;;;30.48;21.75;;;31.60;99.90;;;;;;5053078;28;20024;-73
2023/07/08 04:20:59;;;;;;;24.10;19.55;;;31.60;99.90;;;;;;5053522;28;20469;-74
2023/07/08 04:23:26;;;;;;;30.60;19.75;;;31.60;99.90;;;;;;5050809;28;20028;-73
2023/07/08 04:25:56;;;;;;;26.88;20.75;;;31.60;99.90;;;;;;5047643;28;20055;-74
2023/07/08 04:28:23;;;;;;;23.77;19.15;;;31.70;99.90;;;;;;5050100;28;20094;-73
2023/07/08 04:30:49;;;;;;;23.75;17.98;;;31.70;99.90;;;;;;5052715;28;20429;-73
2023/07/08 04:33:16;;;;;;;22.17;17.05;;;31.80;99.90;;;;;;5051193;28;20025;-76
2023/07/08 04:35:44;;;;;;;23.48;17.63;;;31.70;99.90;;;;;;5052073;28;20025;-75
2023/07/08 04:38:22;;;;;;;23.83;17.48;;;31.80;99.90;;;;;;5052220;28;20458;-75
2023/07/08 04:40:50;;;;;;;25.92;18.30;;;31.90;99.90;;;;;;5051032;28;20021;-74
2023/07/08 04:43:18;;;;;;;25.98;17.75;;;31.90;99.90;;;;;;5052734;28;20386;-75
2023/07/08 04:45:50;;;;;;;20.60;16.55;;;31.90;99.90;;;;;;5052715;28;20036;-75
2023/07/08 04:48:18;;;;;;;22.38;16.40;;;31.90;99.90;;;;;;5052658;28;20017;-73
2023/07/08 04:50:47;;;;;;;36.65;22.65;;;32.00;99.90;;;;;;5052513;28;20399;-74
2023/07/08 04:53:14;;;;;;;41.90;26.63;;;31.90;99.90;;;;;;5050510;28;20044;-74
2023/07/08 04:55:50;;;;;;;28.10;20.25;;;31.90;99.90;;;;;;5050441;28;20028;-74
2023/07/08 04:58:17;;;;;;;22.00;16.85;;;31.90;99.90;;;;;;5052702;28;20048;-73
2023/07/08 05:00:43;;;;;;;19.17;14.07;;;31.90;99.90;;;;;;5046859;28;20028;-74
2023/07/08 05:03:10;;;;;;;21.17;14.77;;;31.90;99.90;;;;;;5038021;28;20378;-75
2023/07/08 05:05:36;;;;;;;17.60;13.98;;;31.90;99.90;;;;;;5043936;28;20021;-76
2023/07/08 05:08:03;;;;;;;18.70;13.18;;;31.90;99.90;;;;;;5052920;28;20091;-75
2023/07/08 05:10:30;;;;;;;23.90;17.63;;;31.90;99.90;;;;;;5053023;28;20462;-74
2023/07/08 05:12:56;;;;;;;21.95;17.48;;;31.90;99.90;;;;;;5055251;28;20044;-72
2023/07/08 05:15:23;;;;;;;22.60;16.15;;;31.80;99.90;;;;;;5056820;28;20038;-72
2023/07/08 05:17:51;;;;;;;17.50;14.75;;;31.90;99.90;;;;;;5057088;28;20032;-74
2023/07/08 05:20:19;;;;;;;19.23;14.10;;;32.00;99.90;;;;;;5056652;28;20044;-74
2023/07/08 05:22:46;;;;;;;20.52;14.48;;;32.00;99.90;;;;;;5056835;28;20031;-74
2023/07/08 05:25:13;;;;;;;20.02;15.90;;;32.00;99.90;;;;;;5057035;28;20031;-77
2023/07/08 05:27:40;;;;;;;17.27;15.07;;;32.00;99.90;;;;;;5053326;28;20128;-74
2023/07/08 05:30:12;;;;;;;20.95;15.50;;;32.00;99.90;;;;;;5057069;28;20097;-74
2023/07/08 05:32:39;;;;;;;22.30;16.15;;;32.10;99.90;;;;;;5052179;28;20028;-74
2023/07/08 05:35:05;;;;;;;22.95;15.75;;;32.10;99.90;;;;;;5056332;28;20025;-74
2023/07/08 05:37:32;;;;;;;19.55;14.77;;;32.20;99.90;;;;;;5054689;28;20028;-73
2023/07/08 05:40:01;;;;;;;18.05;14.63;;;32.20;99.90;;;;;;5056601;28;20021;-71
2023/07/08 05:42:28;;;;;;;17.33;13.63;;;32.30;99.90;;;;;;5056287;28;20451;-70
2023/07/08 05:44:54;;;;;;;16.23;13.43;;;32.30;99.90;;;;;;5056157;28;20489;-70
2023/07/08 05:47:22;;;;;;;25.10;16.33;;;32.40;99.90;;;;;;5045544;28;20031;-71
2023/07/08 05:49:49;;;;;;;66.00;48.08;;;32.40;99.90;;;;;;5038784;28;20033;-70
2023/07/08 05:52:16;;;;;;;27.52;20.73;;;32.50;99.90;;;;;;5047426;28;20039;-71
2023/07/08 05:54:42;;;;;;;61.30;38.20;;;32.50;99.90;;;;;;5055907;28;20024;-72
2023/07/08 05:57:11;;;;;;;38.33;24.45;;;32.60;99.90;;;;;;5055496;28;20020;-71
2023/07/08 05:59:39;;;;;;;25.60;19.15;;;32.60;99.90;;;;;;5050454;28;20033;-72
2023/07/08 06:02:06;;;;;;;26.30;17.65;;;32.70;99.90;;;;;;5053828;28;20120;-72
2023/07/08 06:04:33;;;;;;;30.20;15.80;;;32.70;99.90;;;;;;5053877;28;20013;-72
2023/07/08 06:07:00;;;;;;;20.55;15.02;;;32.70;99.90;;;;;;5050486;28;20390;-72
2023/07/08 06:09:26;;;;;;;17.30;13.55;;;32.60;99.90;;;;;;5051068;28;20472;-72
2023/07/08 06:11:53;;;;;;;19.23;14.32;;;32.50;99.90;;;;;;5055378;28;20094;-70
2023/07/08 06:14:19;;;;;;;20.02;15.05;;;32.50;99.90;;;;;;5053817;28;20044;-70
2023/07/08 06:16:46;;;;;;;19.13;13.38;;;32.40;99.90;;;;;;5053666;28;20488;-68
2023/07/08 06:19:14;;;;;;;19.33;14.40;;;32.40;99.90;;;;;;5055096;28;20048;-70
2023/07/08 06:21:41;;;;;;;14.32;11.52;;;32.50;99.90;;;;;;5055630;28;20013;-70
2023/07/08 06:24:07;;;;;;;20.35;16.20;;;32.70;99.90;;;;;;5055596;28;20383;-71
2023/07/08 06:26:34;;;;;;;25.35;17.42;;;32.70;99.90;;;;;;5054941;28;20465;-72
2023/07/08 06:29:01;;;;;;;22.27;17.60;;;32.80;99.90;;;;;;5055189;28;20102;-72
2023/07/08 06:31:28;;;;;;;31.33;23.77;;;32.80;99.90;;;;;;5055377;28;20048;-70
2023/07/08 06:33:54;;;;;;;29.65;21.50;;;32.80;99.90;;;;;;5049984;28;20470;-72
2023/07/08 06:36:22;;;;;;;20.60;14.70;;;32.90;99.90;;;;;;5052983;28;20192;-72
2023/07/08 06:38:48;;;;;;;17.80;12.55;;;32.90;99.90;;;;;;5070377;28;20425;-72
2023/07/08 06:41:15;;;;;;;15.57;10.65;;;32.90;99.90;;;;;;5075166;28;20100;-70
2023/07/08 06:43:41;;;;;;;12.23;10.50;;;32.90;99.90;;;;;;5075274;28;20409;-69
2023/07/08 06:46:08;;;;;;;12.80;10.25;;;32.80;99.90;;;;;;5045499;28;20021;-72
2023/07/08 06:48:34;;;;;;;17.88;11.27;;;32.80;99.90;;;;;;5052304;28;20079;-71
2023/07/08 06:51:01;;;;;;;13.20;11.05;;;32.80;99.90;;;;;;5055295;28;20063;-72
2023/07/08 06:53:28;;;;;;;12.68;10.63;;;32.80;99.90;;;;;;5037668;28;20200;-70
2023/07/08 06:55:54;;;;;;;16.45;10.43;;;32.80;99.90;;;;;;5055439;28;20017;-72
2023/07/08 06:58:21;;;;;;;13.60;10.07;;;32.80;99.90;;;;;;5055156;28;20045;-71
2023/07/08 07:00:47;;;;;;;13.57;9.85;;;32.80;99.90;;;;;;5055091;28;20067;-72
2023/07/08 07:03:14;;;;;;;14.23;10.07;;;32.80;99.90;;;;;;5056116;28;20021;-71
2023/07/08 07:05:41;;;;;;;12.32;10.38;;;32.80;99.90;;;;;;5056239;28;20132;-70
2023/07/08 07:08:07;;;;;;;15.63;9.80;;;32.80;99.90;;;;;;5056311;28;20044;-72
2023/07/08 07:10:34;;;;;;;13.63;10.30;;;32.90;99.90;;;;;;5055535;28;20037;-71
2023/07/08 07:13:01;;;;;;;14.57;10.60;;;32.90;99.90;;;;;;5056923;28;20301;-71
2023/07/08 07:15:30;;;;;;;15.75;10.88;;;32.80;99.90;;;;;;5066677;28;20028;-72
2023/07/08 07:17:57;;;;;;;22.13;12.23;;;32.70;99.90;;;;;;5059541;28;20024;-72
2023/07/08 07:20:24;;;;;;;18.77;12.02;;;32.70;99.90;;;;;;5048940;28;20053;-71
2023/07/08 07:22:51;;;;;;;20.13;11.30;;;32.70;99.90;;;;;;5055137;28;20096;-70
2023/07/08 07:25:18;;;;;;;13.23;10.65;;;32.70;99.90;;;;;;5053841;28;20380;-69
2023/07/08 07:27:44;;;;;;;25.55;18.88;;;32.70;99.90;;;;;;5083044;23;20121;-67
2023/07/08 07:30:15;;;;;;;21.45;16.90;;;32.70;99.90;;;;;;5074027;28;20951;-68
2023/07/08 07:32:42;;;;;;;53.40;40.38;;;32.70;99.90;;;;;;5066965;28;20037;-69
2023/07/08 07:35:12;;;;;;;74.60;52.72;;;32.80;99.90;;;;;;5066165;28;20408;-68
2023/07/08 07:37:40;;;;;;;27.00;20.85;;;32.80;99.90;;;;;;5066194;28;20047;-73
2023/07/08 07:40:12;;;;;;;31.00;25.00;;;32.80;99.90;;;;;;5067995;28;20024;-68
2023/07/08 07:42:42;;;;;;;16.30;10.85;;;32.80;99.90;;;;;;5068490;28;20021;-68
2023/07/08 07:45:09;;;;;;;15.48;8.38;;;32.90;99.90;;;;;;5070133;28;20385;-68
2023/07/08 07:47:36;;;;;;;13.35;8.40;;;32.90;99.90;;;;;;5074116;28;20031;-67
2023/07/08 07:50:05;;;;;;;10.55;7.97;;;32.90;99.90;;;;;;5074248;28;20021;-68
2023/07/08 07:52:32;;;;;;;18.25;12.23;;;32.90;99.90;;;;;;5072830;28;20413;-68
2023/07/08 07:54:58;;;;;;;16.40;10.38;;;33.00;99.90;;;;;;5073860;28;20025;-68
2023/07/08 07:57:25;;;;;;;12.13;8.52;;;33.00;99.90;;;;;;5073915;28;20047;-68
2023/07/08 07:59:52;;;;;;;12.65;8.95;;;33.00;99.90;;;;;;5073060;28;20047;-68
2023/07/08 08:02:19;;;;;;;11.82;8.93;;;33.00;99.90;;;;;;5064114;28;20032;-69
2023/07/08 08:04:46;;;;;;;14.38;9.50;;;32.90;99.90;;;;;;5053858;28;20028;-68
2023/07/08 08:07:12;;;;;;;13.70;10.48;;;33.00;99.90;;;;;;5053977;28;20021;-69
2023/07/08 08:09:39;;;;;;;21.73;13.82;;;33.10;99.90;;;;;;5053672;28;20033;-67
2023/07/08 08:12:10;;;;;;;19.98;12.07;;;33.00;99.90;;;;;;5053824;28;20367;-68
2023/07/08 08:14:36;;;;;;;18.98;11.65;;;33.10;99.90;;;;;;5053870;28;20471;-68
2023/07/08 08:17:04;;;;;;;14.85;10.02;;;33.10;99.90;;;;;;5053510;28;20025;-68
2023/07/08 08:19:31;;;;;;;14.45;10.35;;;33.00;99.90;;;;;;5053832;28;20024;-68
2023/07/08 08:21:58;;;;;;;14.85;10.20;;;33.00;99.90;;;;;;5054218;28;20021;-68
2023/07/08 08:24:24;;;;;;;20.17;14.88;;;33.00;99.90;;;;;;5053589;28;20017;-68
2023/07/08 08:26:51;;;;;;;29.90;18.42;;;32.90;99.90;;;;;;5053510;28;20053;-70
2023/07/08 08:29:18;;;;;;;21.15;13.80;;;32.90;99.90;;;;;;5052927;28;20425;-71
2023/07/08 08:31:44;;;;;;;17.20;11.90;;;33.00;99.90;;;;;;5053148;28;20440;-71
2023/07/08 08:34:11;;;;;;;22.75;14.77;;;33.00;99.90;;;;;;5053304;28;20025;-72
2023/07/08 08:36:37;;;;;;;20.77;15.40;;;33.00;99.90;;;;;;5053215;28;20108;-71
2023/07/08 08:39:04;;;;;;;51.05;29.33;;;33.00;99.90;;;;;;5053234;28;20018;-70
2023/07/08 08:41:32;;;;;;;40.05;24.30;;;33.00;99.90;;;;;;5053520;28;20101;-72
2023/07/08 08:44:02;;;;;;;38.17;22.50;;;33.00;99.90;;;;;;5053212;28;20032;-72
2023/07/08 08:46:32;;;;;;;32.55;19.13;;;32.90;99.90;;;;;;5052853;28;20505;-71
2023/07/08 08:49:30;;;;;;;21.10;14.23;;;32.90;99.90;;;;;;5053115;28;20033;-71
2023/07/08 08:51:58;;;;;;;30.63;18.60;;;32.90;99.90;;;;;;5052984;28;20033;-72
2023/07/08 08:54:25;;;;;;;34.67;22.73;;;32.90;99.90;;;;;;5053086;28;20558;-72
2023/07/08 08:56:52;;;;;;;27.50;18.48;;;32.90;99.90;;;;;;5053031;28;20482;-72
2023/07/08 08:59:33;;;;;;;24.25;17.77;;;32.90;99.90;;;;;;5052857;28;20604;-69
2023/07/08 09:02:02;;;;;;;25.15;18.02;;;32.90;99.90;;;;;;5053090;28;20036;-70
2023/07/08 09:04:35;;;;;;;26.98;18.13;;;32.80;99.90;;;;;;5052849;28;20021;-71
2023/07/08 09:07:13;;;;;;;32.40;18.50;;;32.80;99.90;;;;;;5053209;28;20086;-70
2023/07/08 09:10:01;;;;;;;17.83;13.27;;;32.80;99.90;;;;;;5052884;28;20017;-71
2023/07/08 09:12:30;;;;;;;22.85;13.65;;;32.80;99.90;;;;;;5052885;28;20037;-70
2023/07/08 09:14:58;;;;;;;24.83;16.00;;;32.70;99.90;;;;;;5053525;28;20029;-70
2023/07/08 09:17:34;;;;;;;22.40;15.60;;;32.80;99.90;;;;;;5053351;28;20064;-70
2023/07/08 09:20:21;;;;;;;20.00;14.25;;;32.80;99.90;;;;;;5053396;28;20025;-71
2023/07/08 09:22:53;;;;;;;28.42;18.63;;;32.80;99.90;;;;;;5052914;28;20021;-71
2023/07/08 09:25:41;;;;;;;26.55;19.35;;;32.80;99.90;;;;;;5053316;28;20104;-70
2023/07/08 09:28:09;;;;;;;26.10;16.80;;;32.70;99.90;;;;;;5052854;28;20128;-70
2023/07/08 09:30:35;;;;;;;22.92;15.68;;;32.60;99.90;;;;;;5053198;28;20032;-70
2023/07/08 09:33:05;;;;;;;29.20;17.08;;;32.50;99.90;;;;;;5053079;28;20381;-70
2023/07/08 09:35:46;;;;;;;31.58;17.55;;;32.50;99.90;;;;;;5053153;28;20381;-71
2023/07/08 09:38:23;;;;;;;34.00;21.52;;;32.50;99.90;;;;;;5053020;28;20079;-71
2023/07/08 09:40:56;;;;;;;40.08;22.80;;;32.40;99.90;;;;;;5052621;28;20104;-71
2023/07/08 09:43:42;;;;;;;25.73;17.70;;;32.40;99.90;;;;;;5051745;28;20413;-71
2023/07/08 09:46:13;;;;;;;29.73;17.52;;;32.30;99.90;;;;;;5052492;28;20025;-71
2023/07/08 09:48:40;;;;;;;24.88;18.58;;;32.20;99.90;;;;;;5052351;28;20517;-71
2023/07/08 09:51:08;;;;;;;28.10;19.17;;;32.20;99.90;;;;;;5052542;28;20060;-70
2023/07/08 09:53:35;;;;;;;30.05;19.08;;;32.10;99.90;;;;;;5051624;28;20050;-71
2023/07/08 09:56:04;;;;;;;29.67;20.17;;;32.10;99.90;;;;;;5051575;28;20018;-71
2023/07/08 09:58:38;;;;;;;33.80;19.83;;;32.00;99.90;;;;;;5052245;28;20025;-71
2023/07/08 10:01:13;;;;;;;25.00;18.45;;;32.00;99.90;;;;;;5055940;28;20474;-71
2023/07/08 10:03:40;;;;;;;28.48;19.77;;;32.00;99.90;;;;;;5055609;28;20028;-71
2023/07/08 10:06:25;;;;;;;28.83;20.10;;;31.90;99.90;;;;;;5055652;28;20075;-71
2023/07/08 10:08:54;;;;;;;27.95;16.15;;;31.80;99.90;;;;;;5055639;28;20029;-71
2023/07/08 10:11:42;;;;;;;18.98;12.38;;;31.70;99.90;;;;;;5055760;28;20478;-71
2023/07/08 10:14:35;;;;;;;20.95;13.32;;;31.60;99.90;;;;;;5055942;28;20029;-71
2023/07/08 10:17:03;;;;;;;21.02;13.07;;;31.50;99.90;;;;;;5054569;28;20115;-71
2023/07/08 10:19:29;;;;;;;17.08;11.38;;;31.40;99.90;;;;;;5055569;28;20025;-71
2023/07/08 10:22:13;;;;;;;22.02;12.50;;;31.40;99.90;;;;;;5055651;28;20021;-71
2023/07/08 10:24:54;;;;;;;31.85;17.75;;;31.40;99.90;;;;;;5055387;28;20039;-71
2023/07/08 10:27:44;;;;;;;24.80;14.38;;;31.30;99.90;;;;;;5055245;28;20447;-71
2023/07/08 10:30:23;;;;;;;28.55;16.58;;;31.20;99.90;;;;;;5055342;28;20033;-71
2023/07/08 10:32:59;;;;;;;31.45;18.15;;;31.20;99.90;;;;;;5055190;28;20036;-70
2023/07/08 10:35:33;;;;;;;34.33;20.10;;;31.00;99.90;;;;;;5055130;28;20057;-69
2023/07/08 10:38:17;;;;;;;27.98;17.73;;;31.00;99.90;;;;;;5055217;28;20051;-69
2023/07/08 10:40:45;;;;;;;30.52;17.67;;;31.00;99.90;;;;;;5055198;28;20017;-70
2023/07/08 10:43:40;;;;;;;21.42;13.02;;;31.00;99.90;;;;;;5055162;28;20067;-69
2023/07/08 10:46:13;;;;;;;18.98;11.45;;;31.00;99.90;;;;;;5053211;28;20036;-69
2023/07/08 10:48:51;;;;;;;26.88;13.07;;;31.00;99.90;;;;;;5054879;28;20075;-71
2023/07/08 10:51:17;;;;;;;25.17;13.93;;;31.00;99.90;;;;;;5055027;28;20029;-70
2023/07/08 10:53:46;;;;;;;26.75;15.05;;;30.90;99.90;;;;;;5054943;28;20035;-70
2023/07/08 10:56:35;;;;;;;29.85;18.70;;;30.80;99.90;;;;;;5054985;28;20025;-71
2023/07/08 10:59:14;;;;;;;41.50;22.55;;;30.80;99.90;;;;;;5053560;28;20036;-70
2023/07/08 11:02:02;;;;;;;35.22;22.05;;;30.80;99.90;;;;;;5054892;28;20017;-70
2023/07/08 11:04:45;;;;;;;38.03;21.30;;;30.80;99.90;;;;;;5054628;28;20017;-70
2023/07/08 11:07:33;;;;;;;36.03;21.15;;;30.80;99.90;;;;;;5054770;28;20024;-70
2023/07/08 11:10:13;;;;;;;31.95;18.67;;;30.80;99.90;;;;;;5054516;28;20393;-70
2023/07/08 11:12:52;;;;;;;31.25;21.02;;;30.80;99.90;;;;;;5054612;28;20017;-70
2023/07/08 11:15:25;;;;;;;60.70;30.70;;;30.90;99.90;;;;;;5054478;28;20078;-70
2023/07/08 11:18:12;;;;;;;50.15;30.40;;;30.80;99.90;;;;;;5054416;28;20047;-70
2023/07/08 11:20:59;;;;;;;57.60;33.20;;;30.80;99.90;;;;;;5053860;28;20062;-70
2023/07/08 11:23:45;;;;;;;71.88;41.53;;;30.80;99.90;;;;;;5054209;28;20146;-70
2023/07/08 11:26:24;;;;;;;62.80;38.60;;;30.80;99.90;;;;;;5052410;28;20041;-70
2023/07/08 11:28:54;;;;;;;45.45;32.05;;;30.80;99.90;;;;;;5053919;28;20045;-70
2023/07/08 11:31:23;;;;;;;58.55;36.83;;;30.80;99.90;;;;;;5054245;28;20055;-70
2023/07/08 11:33:50;;;;;;;67.72;40.50;;;30.80;99.90;;;;;;5054107;28;20070;-70
2023/07/08 11:36:19;;;;;;;103.20;66.70;;;30.80;99.90;;;;;;5053999;28;20037;-70
2023/07/08 11:38:57;;;;;;;89.90;52.55;;;30.80;99.90;;;;;;5054227;28;20017;-70
2023/07/08 11:41:28;;;;;;;72.18;44.45;;;30.80;99.90;;;;;;5053905;28;20363;-70
2023/07/08 11:43:59;;;;;;;60.50;35.05;;;30.80;99.90;;;;;;5053972;28;20031;-70
2023/07/08 11:46:30;;;;;;;65.05;41.38;;;30.80;99.90;;;;;;5053947;28;20091;-70
2023/07/08 11:49:18;;;;;;;50.27;32.97;;;30.80;99.90;;;;;;5053968;28;20029;-70
2023/07/08 11:51:47;;;;;;;45.35;25.05;;;30.80;99.90;;;;;;5053426;28;20037;-70
2023/07/08 11:54:20;;;;;;;39.33;23.45;;;30.70;99.90;;;;;;5053825;28;20031;-70
2023/07/08 11:56:58;;;;;;;34.03;21.45;;;30.70;99.90;;;;;;5053646;28;20040;-70
2023/07/08 11:59:26;;;;;;;31.30;19.15;;;30.70;99.90;;;;;;5054064;28;20091;-70
2023/07/08 12:01:54;;;;;;;36.00;20.23;;;30.70;99.90;;;;;;5053761;28;20032;-70
2023/07/08 12:04:35;;;;;;;27.20;19.25;;;30.70;99.90;;;;;;5053495;28;20029;-70
2023/07/08 12:07:10;;;;;;;27.33;19.70;;;30.70;99.90;;;;;;5053528;28;20078;-70
2023/07/08 12:09:47;;;;;;;26.60;18.30;;;30.60;99.90;;;;;;5053435;28;20123;-71
2023/07/08 12:12:28;;;;;;;30.80;19.65;;;30.70;99.90;;;;;;5053471;28;20541;-70
2023/07/08 12:15:01;;;;;;;30.27;20.48;;;30.70;99.90;;;;;;5053231;28;20037;-70
2023/07/08 12:17:30;;;;;;;35.92;22.67;;;30.60;99.90;;;;;;5053419;28;20236;-70
2023/07/08 12:20:00;;;;;;;38.33;23.65;;;30.60;99.90;;;;;;5053445;28;20021;-69
2023/07/08 12:22:27;;;;;;;32.28;19.88;;;30.60;99.90;;;;;;5052724;28;20025;-70
2023/07/08 12:24:55;;;;;;;25.67;17.52;;;30.60;99.90;;;;;;5053362;28;20021;-70
2023/07/08 12:27:22;;;;;;;22.25;15.18;;;30.50;99.90;;;;;;5053025;28;20119;-69
2023/07/08 12:29:49;;;;;;;22.35;15.20;;;30.40;99.90;;;;;;5053010;28;20049;-68
2023/07/08 12:32:16;;;;;;;19.42;14.00;;;30.40;99.90;;;;;;5053174;28;20478;-70
2023/07/08 12:34:43;;;;;;;23.52;14.90;;;30.40;99.90;;;;;;5051948;28;20385;-70
2023/07/08 12:37:13;;;;;;;21.70;15.27;;;30.30;99.90;;;;;;5052934;28;20378;-70
2023/07/08 12:39:39;;;;;;;24.10;14.52;;;30.30;99.90;;;;;;5053207;28;20025;-70
2023/07/08 12:42:12;;;;;;;21.85;15.98;;;30.30;99.90;;;;;;5053171;28;20033;-70
2023/07/08 12:44:42;;;;;;;23.05;15.20;;;30.30;99.90;;;;;;5053020;28;20028;-70
2023/07/08 12:47:09;;;;;;;32.75;18.15;;;30.30;99.90;;;;;;5053039;28;20025;-70
2023/07/08 12:49:35;;;;;;;38.78;22.65;;;30.30;99.90;;;;;;5053070;28;20532;-70
2023/07/08 12:52:02;;;;;;;86.63;43.50;;;30.30;99.90;;;;;;5053036;28;20036;-71
2023/07/08 12:54:30;;;;;;;70.07;38.42;;;30.30;99.90;;;;;;5052955;28;20504;-70
2023/07/08 12:56:57;;;;;;;39.70;21.63;;;30.30;99.90;;;;;;5052960;28;20447;-70